Time;durP1;ratioP1;P1;durP2;ratioP2;P2;SDS_P1;SDS_P2;PMS_P1;PMS_P2;Temp;Humidity;BMP_temperature;BMP_pressure;BME280_temperature;BME280_humidity;BME280_pressure;Samples;Min_cycle;Max_cycle;Signal;HPM_P1;HPM_P2
2023/08/21 00:01:25;;;;;;;;;;;15.70;99.90;;;;;;5034813;28;19933;-79
2023/08/21 00:03:51;;;;;;;;;;;15.70;99.90;;;;;;5032553;28;19925;-79
2023/08/21 00:06:16;;;;;;;;;;;15.70;99.90;;;;;;5030612;28;19929;-79
2023/08/21 00:08:42;;;;;;;;;;;15.60;99.90;;;;;;5031673;28;19933;-79
2023/08/21 00:11:07;;;;;;;;;;;15.60;99.90;;;;;;5049133;28;19935;-79
2023/08/21 00:13:33;;;;;;;;;;;15.50;99.90;;;;;;5030665;28;20414;-79
2023/08/21 00:16:00;;;;;;;;;;;15.50;99.90;;;;;;5032079;28;19999;-79
2023/08/21 00:18:25;;;;;;;;;;;15.40;99.90;;;;;;5013094;28;19936;-79
2023/08/21 00:20:51;;;;;;;;;;;15.50;99.90;;;;;;5014464;28;19933;-78
2023/08/21 00:23:16;;;;;;;;;;;15.40;99.90;;;;;;5016097;28;19929;-78
2023/08/21 00:25:45;;;;;;;;;;;15.40;99.90;;;;;;5030045;28;19925;-78
2023/08/21 00:28:10;;;;;;;;;;;15.40;99.90;;;;;;5014135;28;19934;-78
2023/08/21 00:30:36;;;;;;;;;;;15.30;99.90;;;;;;5043736;28;19932;-79
2023/08/21 00:33:01;;;;;;;;;;;15.30;99.90;;;;;;5031054;28;19986;-79
2023/08/21 00:35:27;;;;;;;;;;;15.30;99.90;;;;;;5014238;28;19925;-79
2023/08/21 00:37:53;;;;;;;;;;;15.30;99.90;;;;;;5029248;28;19925;-79
2023/08/21 00:40:18;;;;;;;;;;;15.30;99.90;;;;;;5029091;28;20012;-79
2023/08/21 00:42:44;;;;;;;;;;;15.20;99.90;;;;;;5044404;28;19936;-79
2023/08/21 00:45:11;;;;;;;;;;;15.10;99.90;;;;;;4999104;28;19932;-79
2023/08/21 00:47:37;;;;;;;;;;;15.00;99.90;;;;;;5013189;28;19936;-79
2023/08/21 00:50:02;;;;;;;;;;;14.90;99.90;;;;;;5032358;28;19925;-79
2023/08/21 00:52:28;;;;;;;;;;;14.90;99.90;;;;;;5032069;28;19936;-79
2023/08/21 00:54:54;;;;;;;;;;;14.90;99.90;;;;;;5029441;28;19925;-79
2023/08/21 00:57:20;;;;;;;;;;;14.90;99.90;;;;;;5034199;28;19944;-79
2023/08/21 00:59:46;;;;;;;;;;;14.90;99.90;;;;;;5019816;28;19937;-79
2023/08/21 01:02:12;;;;;;;;;;;14.90;99.90;;;;;;5067343;28;19949;-79
2023/08/21 01:04:37;;;;;;;;;;;14.90;99.90;;;;;;5035617;28;19925;-79
2023/08/21 01:07:09;;;;;;;;;;;14.80;99.90;;;;;;5056623;28;19940;-79
2023/08/21 01:09:54;;;;;;;;;;;14.80;99.90;;;;;;5064702;28;19930;-79
2023/08/21 01:12:33;;;;;;;;;;;14.80;99.90;;;;;;5028033;28;20268;-80
2023/08/21 01:15:06;;;;;;;;;;;14.80;99.90;;;;;;5045826;28;19956;-79
2023/08/21 01:17:34;;;;;;;;;;;14.80;99.90;;;;;;5064885;28;19933;-79
2023/08/21 01:19:59;;;;;;;;;;;14.80;99.90;;;;;;5010536;28;19936;-79
2023/08/21 01:22:26;;;;;;;;;;;14.70;99.90;;;;;;5016048;28;19933;-78
2023/08/21 01:24:52;;;;;;;;;;;14.70;99.90;;;;;;5064805;28;19932;-79
2023/08/21 01:27:17;;;;;;;;;;;14.70;99.90;;;;;;5065090;28;19980;-79
2023/08/21 01:29:43;;;;;;;;;;;14.70;99.90;;;;;;5034984;28;19935;-79
2023/08/21 01:32:12;;;;;;;;;;;14.70;99.90;;;;;;5030871;28;19925;-79
2023/08/21 01:34:39;;;;;;;;;;;14.70;99.90;;;;;;5033994;28;21005;-79
2023/08/21 01:37:05;;;;;;;;;;;14.60;99.90;;;;;;5048511;28;19929;-79
2023/08/21 01:39:31;;;;;;;;;;;14.60;99.90;;;;;;5044724;28;19988;-79
2023/08/21 01:41:57;;;;;;;;;;;14.60;99.90;;;;;;5018652;28;19979;-79
2023/08/21 01:44:23;;;;;;;;;;;14.60;99.90;;;;;;5035431;28;20245;-79
2023/08/21 01:46:48;;;;;;;;;;;14.50;99.90;;;;;;5010388;28;20018;-79
2023/08/21 01:49:14;;;;;;;;;;;14.60;99.90;;;;;;5035339;28;20440;-79
2023/08/21 01:51:39;;;;;;;;;;;14.60;99.90;;;;;;5063049;28;19976;-79
2023/08/21 01:54:05;;;;;;;;;;;14.50;99.90;;;;;;5017843;28;19983;-79
2023/08/21 01:56:31;;;;;;;;;;;14.50;99.90;;;;;;5015254;28;20430;-79
2023/08/21 01:58:56;;;;;;;;;;;14.50;99.90;;;;;;5034828;28;19960;-79
2023/08/21 02:01:23;;;;;;;;;;;14.50;99.90;;;;;;5033229;28;20003;-79
2023/08/21 02:03:48;;;;;;;;;;;14.50;99.90;;;;;;5068123;28;19929;-80
2023/08/21 02:06:14;;;;;;;;;;;14.40;99.90;;;;;;5035434;28;19959;-79
2023/08/21 02:08:39;;;;;;;;;;;14.40;99.90;;;;;;5019055;28;19929;-79
2023/08/21 02:11:05;;;;;;;;;;;14.40;99.90;;;;;;5032031;28;19985;-79
2023/08/21 02:13:32;;;;;;;;;;;14.40;99.90;;;;;;5034530;28;19925;-79
2023/08/21 02:15:58;;;;;;;;;;;14.40;99.90;;;;;;5064193;28;19929;-79
2023/08/21 02:18:24;;;;;;;;;;;14.30;99.90;;;;;;5046298;28;19932;-80
2023/08/21 02:20:49;;;;;;;;;;;14.30;99.90;;;;;;5032226;28;19925;-79
2023/08/21 02:23:15;;;;;;;;;;;14.30;99.90;;;;;;5033806;28;20501;-79
2023/08/21 02:25:41;;;;;;;;;;;14.30;99.90;;;;;;5032226;28;19929;-79
2023/08/21 02:28:06;;;;;;;;;;;14.20;99.90;;;;;;5049436;28;19929;-80
2023/08/21 02:30:32;;;;;;;;;;;14.20;99.90;;;;;;5046971;28;19952;-79
2023/08/21 02:32:58;;;;;;;;;;;14.20;99.90;;;;;;4998796;28;20366;-80
2023/08/21 02:35:23;;;;;;;;;;;14.10;99.90;;;;;;5030862;28;20000;-80
2023/08/21 02:37:49;;;;;;;;;;;14.20;99.90;;;;;;5016385;28;19925;-79
2023/08/21 02:40:15;;;;;;;;;;;14.20;99.90;;;;;;4997001;28;19937;-79
2023/08/21 02:42:40;;;;;;;;;;;14.20;99.90;;;;;;5017443;28;19932;-80
2023/08/21 02:45:09;;;;;;;;;;;14.20;99.90;;;;;;5034106;28;20681;-79
2023/08/21 02:47:38;;;;;;;;;;;14.10;99.90;;;;;;5064885;28;20327;-79
2023/08/21 02:50:04;;;;;;;;;;;14.10;99.90;;;;;;5025176;28;19930;-79
2023/08/21 02:52:30;;;;;;;;;;;14.10;99.90;;;;;;5036319;28;20056;-80
2023/08/21 02:54:55;;;;;;;;;;;14.10;99.90;;;;;;5051741;28;19979;-79
2023/08/21 02:57:21;;;;;;;;;;;14.10;99.90;;;;;;5015937;28;19961;-79
2023/08/21 02:59:46;;;;;;;;;;;14.10;99.90;;;;;;5017430;28;19932;-79
2023/08/21 03:02:12;;;;;;;;;;;14.10;99.90;;;;;;5042196;28;20309;-80
2023/08/21 03:04:37;;;;;;;;;;;14.10;99.90;;;;;;5039032;28;19952;-79
2023/08/21 03:07:03;;;;;;;;;;;14.00;99.90;;;;;;5036816;28;19929;-79
2023/08/21 03:09:28;;;;;;;;;;;14.10;99.90;;;;;;5037615;28;20396;-79
2023/08/21 03:11:54;;;;;;;;;;;14.00;99.90;;;;;;5035451;28;19924;-79
2023/08/21 03:14:20;;;;;;;;;;;14.00;99.90;;;;;;5038225;28;19931;-79
2023/08/21 03:16:45;;;;;;;;;;;14.00;99.90;;;;;;5039328;28;20296;-79
2023/08/21 03:19:11;;;;;;;;;;;14.00;99.90;;;;;;5038695;28;19929;-79
2023/08/21 03:21:36;;;;;;;;;;;14.00;99.90;;;;;;5031933;28;19925;-79
2023/08/21 03:24:02;;;;;;;;;;;13.90;99.90;;;;;;5032723;28;19926;-79
2023/08/21 03:26:28;;;;;;;;;;;13.90;99.90;;;;;;5038100;28;19925;-79
2023/08/21 03:28:53;;;;;;;;;;;13.90;99.90;;;;;;5039362;28;19925;-79
2023/08/21 03:31:19;;;;;;;;;;;13.80;99.90;;;;;;5034983;28;20415;-79
2023/08/21 03:33:44;;;;;;;;;;;13.80;99.90;;;;;;5057994;28;19925;-80
2023/08/21 03:36:10;;;;;;;;;;;13.80;99.90;;;;;;5044382;28;19936;-79
2023/08/21 03:38:36;;;;;;;;;;;13.80;99.90;;;;;;5021176;28;20379;-79
2023/08/21 03:41:02;;;;;;;;;;;13.70;99.90;;;;;;5022077;28;19925;-79
2023/08/21 03:43:27;;;;;;;;;;;13.70;99.90;;;;;;5037651;28;20333;-79
2023/08/21 03:45:53;;;;;;;;;;;13.70;99.90;;;;;;5018315;28;19952;-79
2023/08/21 03:48:18;;;;;;;;;;;13.70;99.90;;;;;;5032092;28;20016;-79
2023/08/21 03:50:44;;;;;;;;;;;13.70;99.90;;;;;;5050735;28;19947;-80
2023/08/21 03:53:09;;;;;;;;;;;13.70;99.90;;;;;;5064568;28;19925;-79
2023/08/21 03:55:35;;;;;;;;;;;13.70;99.90;;;;;;5020066;28;19933;-79
2023/08/21 03:58:00;;;;;;;;;;;13.70;99.90;;;;;;5034615;28;19928;-79
2023/08/21 04:00:26;;;;;;;;;;;13.70;99.90;;;;;;5020528;28;19925;-79
2023/08/21 04:02:52;;;;;;;;;;;13.70;99.90;;;;;;5042202;28;19929;-79
2023/08/21 04:05:17;;;;;;;;;;;13.70;99.90;;;;;;5036096;28;19947;-80
2023/08/21 04:07:43;;;;;;;;;;;13.60;99.90;;;;;;5023935;28;19925;-79
2023/08/21 04:10:08;;;;;;;;;;;13.60;99.90;;;;;;5039720;28;19967;-79
2023/08/21 04:12:34;;;;;;;;;;;13.50;99.90;;;;;;5022600;28;19925;-79
2023/08/21 04:14:59;;;;;;;;;;;13.50;99.90;;;;;;5064023;28;19929;-79
2023/08/21 04:17:25;;;;;;;;;;;13.50;99.90;;;;;;5017366;28;19940;-79
2023/08/21 04:19:51;;;;;;;;;;;13.50;99.90;;;;;;5014681;28;19929;-79
2023/08/21 04:22:16;;;;;;;;;;;13.50;99.90;;;;;;5032562;28;19926;-79
2023/08/21 04:24:42;;;;;;;;;;;13.50;99.90;;;;;;5049258;28;19925;-79
2023/08/21 04:27:08;;;;;;;;;;;13.50;99.90;;;;;;5037475;28;19937;-78
2023/08/21 04:29:38;;;;;;;;;;;13.50;99.90;;;;;;5039883;28;19929;-79
2023/08/21 04:32:03;;;;;;;;;;;13.50;99.90;;;;;;5061396;28;20425;-79
2023/08/21 04:34:29;;;;;;;;;;;13.50;99.90;;;;;;5052142;28;19951;-79
2023/08/21 04:36:55;;;;;;;;;;;13.50;99.90;;;;;;5038554;28;19932;-79
2023/08/21 04:39:20;;;;;;;;;;;13.60;99.90;;;;;;5037092;28;19996;-79
2023/08/21 04:41:46;;;;;;;;;;;13.60;99.90;;;;;;5026622;28;19944;-79
2023/08/21 04:44:11;;;;;;;;;;;13.60;99.90;;;;;;5045997;28;19929;-79
2023/08/21 04:46:37;;;;;;;;;;;13.60;99.90;;;;;;5037023;28;19938;-79
2023/08/21 04:49:02;;;;;;;;;;;13.60;99.90;;;;;;5007247;28;19936;-79
2023/08/21 04:51:28;;;;;;;;;;;13.60;99.90;;;;;;5022134;28;19925;-79
2023/08/21 04:53:53;;;;;;;;;;;13.60;99.90;;;;;;5021885;28;19932;-79
2023/08/21 04:56:19;;;;;;;;;;;13.50;99.90;;;;;;5036504;28;19933;-79
2023/08/21 04:58:44;;;;;;;;;;;13.60;99.90;;;;;;5070445;28;20118;-79
2023/08/21 05:01:10;;;;;;;;;;;13.60;99.90;;;;;;5025843;28;19932;-79
2023/08/21 05:03:35;;;;;;;;;;;13.60;99.90;;;;;;5013779;28;19933;-79
2023/08/21 05:06:01;;;;;;;;;;;13.70;99.90;;;;;;5020067;28;19932;-79
2023/08/21 05:08:27;;;;;;;;;;;13.90;99.90;;;;;;5068140;28;19976;-79
2023/08/21 05:10:56;;;;;;;;;;;14.10;99.90;;;;;;5051955;28;20332;-79
2023/08/21 05:13:21;;;;;;;;;;;14.40;99.90;;;;;;5068704;28;20351;-79
2023/08/21 05:15:57;;;;;;;;;;;14.70;99.90;;;;;;5040023;28;19925;-80
2023/08/21 05:18:24;;;;;;;;;;;14.90;99.90;;;;;;5036341;28;19925;-79
2023/08/21 05:20:50;;;;;;;;;;;14.90;99.90;;;;;;5037016;28;19929;-79
2023/08/21 05:23:15;;;;;;;;;;;14.90;99.90;;;;;;5022896;28;19940;-79
2023/08/21 05:25:42;;;;;;;;;;;14.80;99.90;;;;;;5019736;28;20419;-80
2023/08/21 05:28:08;;;;;;;;;;;14.70;99.90;;;;;;5035885;28;19980;-79
2023/08/21 05:30:35;;;;;;;;;;;14.70;99.90;;;;;;5019112;28;19933;-80
2023/08/21 05:33:01;;;;;;;;;;;14.60;99.90;;;;;;5067921;28;20373;-79
2023/08/21 05:35:26;;;;;;;;;;;14.70;99.90;;;;;;5021533;28;19945;-79
2023/08/21 05:37:52;;;;;;;;;;;14.80;99.90;;;;;;5017184;28;19932;-79
2023/08/21 05:40:17;;;;;;;;;;;14.90;99.90;;;;;;5037626;28;19940;-79
2023/08/21 05:42:43;;;;;;;;;;;14.90;99.90;;;;;;5040004;28;19936;-79
2023/08/21 05:45:08;;;;;;;;;;;15.00;99.90;;;;;;5008485;28;19932;-79
2023/08/21 05:47:34;;;;;;;;;;;15.00;99.90;;;;;;5028223;28;19929;-79
2023/08/21 05:50:00;;;;;;;;;;;15.10;99.90;;;;;;5052011;28;19929;-79
2023/08/21 05:52:26;;;;;;;;;;;15.10;99.90;;;;;;5026678;28;20370;-79
2023/08/21 05:54:51;;;;;;;;;;;15.20;99.90;;;;;;5041218;28;19970;-79
2023/08/21 05:57:17;;;;;;;;;;;15.30;99.90;;;;;;5018194;28;19951;-79
2023/08/21 05:59:43;;;;;;;;;;;15.40;99.90;;;;;;5068041;28;19932;-79
2023/08/21 06:02:09;;;;;;;;;;;15.40;99.90;;;;;;5038774;28;20004;-79
2023/08/21 06:04:34;;;;;;;;;;;15.60;99.90;;;;;;5002962;28;20008;-79
2023/08/21 06:07:00;;;;;;;;;;;15.60;99.90;;;;;;5019921;28;19925;-79
2023/08/21 06:09:26;;;;;;;;;;;15.70;99.90;;;;;;5021510;28;19972;-79
2023/08/21 06:11:51;;;;;;;;;;;15.70;99.90;;;;;;5037768;28;19948;-79
2023/08/21 06:14:17;;;;;;;;;;;15.80;99.90;;;;;;5034707;28;19995;-79
2023/08/21 06:16:44;;;;;;;;;;;15.90;99.90;;;;;;5033059;28;19929;-79
2023/08/21 06:19:10;;;;;;;;;;;15.90;99.90;;;;;;5016752;28;21294;-79
2023/08/21 06:21:36;;;;;;;;;;;16.00;99.90;;;;;;5045276;28;19929;-79
2023/08/21 06:24:02;;;;;;;;;;;16.10;99.90;;;;;;5051515;28;19956;-79
2023/08/21 06:26:27;;;;;;;;;;;16.20;99.90;;;;;;5048802;28;19929;-79
2023/08/21 06:28:53;;;;;;;;;;;16.20;99.90;;;;;;5033668;28;19929;-79
2023/08/21 06:31:18;;;;;;;;;;;16.40;99.90;;;;;;5044860;28;19937;-88
2023/08/21 06:33:44;;;;;;;;;;;16.50;99.90;;;;;;5055611;28;20308;-88
2023/08/21 06:36:10;;;;;;;;;;;16.50;99.90;;;;;;5022775;28;19953;-88
2023/08/21 06:38:35;;;;;;;;;;;16.70;99.90;;;;;;5008633;28;19933;-87
2023/08/21 06:41:01;;;;;;;;;;;16.80;99.90;;;;;;5006610;28;19984;-90
2023/08/21 06:43:26;;;;;;;;;;;16.90;99.90;;;;;;5023461;28;19925;-90
2023/08/21 06:45:52;;;;;;;;;;;17.10;99.90;;;;;;5018940;28;19932;-89
2023/08/21 06:48:18;;;;;;;;;;;17.50;99.90;;;;;;5017431;28;19921;-89
2023/08/21 06:50:44;;;;;;;;;;;18.30;99.90;;;;;;5014531;28;19952;-89
2023/08/21 06:53:09;;;;;;;;;;;18.80;99.90;;;;;;5055670;28;19925;-88
2023/08/21 06:55:35;;;;;;;;;;;19.00;99.90;;;;;;5027316;28;19929;-89
2023/08/21 06:58:00;;;;;;;;;;;19.40;99.90;;;;;;5036730;28;19925;-79
2023/08/21 07:00:26;;;;;;;;;;;19.80;99.90;;;;;;5049606;28;19933;-88
2023/08/21 07:02:52;;;;;;;;;;;19.90;99.90;;;;;;5051885;28;19929;-87
2023/08/21 07:05:17;;;;;;;;;;;20.00;99.90;;;;;;5039028;28;19932;-88
2023/08/21 07:07:43;;;;;;;;;;;20.00;99.90;;;;;;5029493;28;19925;-88
2023/08/21 07:10:08;;;;;;;;;;;20.00;99.90;;;;;;5020002;28;20388;-88
2023/08/21 07:12:34;;;;;;;;;;;20.20;99.90;;;;;;5020102;28;19925;-87
2023/08/21 07:15:00;;;;;;;;;;;20.40;99.90;;;;;;5002160;28;20023;-88
2023/08/21 07:17:26;;;;;;;;;;;20.50;99.90;;;;;;5023822;28;20448;-88
2023/08/21 07:19:52;;;;;;;;;;;20.70;99.90;;;;;;5000847;28;20392;-87
2023/08/21 07:22:19;;;;;;;;;;;21.00;99.90;;;;;;5036558;28;20019;-88
2023/08/21 07:24:45;;;;;;;;;;;21.30;99.90;;;;;;5030951;28;19992;-86
2023/08/21 07:27:10;;;;;;;;;;;21.80;99.90;;;;;;5001394;28;19960;-87
2023/08/21 07:29:36;;;;;;;;;;;22.20;99.90;;;;;;5032969;28;19981;-87
2023/08/21 07:32:01;;;;;;;;;;;22.50;99.90;;;;;;5032023;28;19978;-85
2023/08/21 07:34:27;;;;;;;;;;;22.90;99.90;;;;;;5022348;28;19925;-85
2023/08/21 07:36:52;;;;;;;;;;;23.30;99.90;;;;;;5021523;28;19925;-85
2023/08/21 07:39:18;;;;;;;;;;;23.80;99.90;;;;;;5019856;28;19929;-85
2023/08/21 07:41:44;;;;;;;;;;;24.20;99.90;;;;;;5004458;28;19936;-86
2023/08/21 07:44:09;;;;;;;;;;;24.60;99.90;;;;;;5005161;28;19929;-85
2023/08/21 07:46:35;;;;;;;;;;;24.90;99.90;;;;;;5034258;28;19932;-85
2023/08/21 07:49:00;;;;;;;;;;;25.20;99.90;;;;;;5050505;28;19960;-85
2023/08/21 07:51:26;;;;;;;;;;;25.40;99.90;;;;;;5034755;28;19936;-86
2023/08/21 07:53:51;;;;;;;;;;;25.70;99.90;;;;;;5032331;28;19930;-85
2023/08/21 07:56:17;;;;;;;;;;;26.00;99.90;;;;;;5025799;28;19926;-85
2023/08/21 07:58:43;;;;;;;;;;;26.40;99.90;;;;;;5037064;28;19955;-87
2023/08/21 08:01:08;;;;;;;;;;;26.60;99.90;;;;;;5025163;28;21218;-86
2023/08/21 08:03:34;;;;;;;;;;;26.90;99.90;;;;;;4998491;28;19936;-86
2023/08/21 08:05:59;;;;;;;;;;;27.00;99.90;;;;;;5043217;28;19925;-81
2023/08/21 08:08:25;;;;;;;;;;;27.10;99.90;;;;;;5033593;28;19935;-86
2023/08/21 08:10:50;;;;;;;;;;;27.20;99.90;;;;;;5013772;28;19933;-86
2023/08/21 08:13:16;;;;;;;;;;;27.30;99.90;;;;;;5045722;28;19988;-84
2023/08/21 08:15:42;;;;;;;;;;;27.50;99.90;;;;;;5029562;28;19931;-85
2023/08/21 08:18:12;;;;;;;;;;;27.60;99.90;;;;;;4995554;28;20197;-86
2023/08/21 08:20:38;;;;;;;;;;;27.70;99.90;;;;;;5042971;28;20293;-87
2023/08/21 08:23:04;;;;;;;;;;;27.80;99.90;;;;;;5026028;28;20418;-86
2023/08/21 08:25:30;;;;;;;;;;;27.80;99.90;;;;;;5038884;28;19925;-86
2023/08/21 08:27:55;;;;;;;;;;;27.90;99.90;;;;;;4995310;28;19937;-86
2023/08/21 08:30:21;;;;;;;;;;;28.00;99.90;;;;;;5024707;28;19929;-86
2023/08/21 08:32:46;;;;;;;;;;;28.10;99.90;;;;;;5031386;28;19936;-86
2023/08/21 08:35:13;;;;;;;;;;;28.10;99.90;;;;;;5015333;28;19925;-86
2023/08/21 08:37:39;;;;;;;;;;;28.20;99.90;;;;;;5015803;28;19925;-86
2023/08/21 08:40:05;;;;;;;;;;;28.10;99.40;;;;;;4999300;28;19929;-87
2023/08/21 08:42:31;;;;;;;;;;;28.10;99.00;;;;;;5043763;28;19991;-87
2023/08/21 08:44:56;;;;;;;;;;;28.10;99.90;;;;;;5014339;28;20376;-87
2023/08/21 08:47:22;;;;;;;;;;;28.10;99.90;;;;;;5016817;28;20369;-87
2023/08/21 08:49:48;;;;;;;;;;;28.20;97.60;;;;;;5033300;28;19937;-86
2023/08/21 08:52:15;;;;;;;;;;;28.20;99.20;;;;;;5029555;28;20083;-88
2023/08/21 08:54:40;;;;;;;;;;;28.10;99.90;;;;;;5013940;28;20304;-86
2023/08/21 08:57:06;;;;;;;;;;;28.20;99.90;;;;;;4999005;28;19968;-85
2023/08/21 08:59:32;;;;;;;;;;;28.40;99.10;;;;;;5030836;28;19940;-87
2023/08/21 09:01:58;;;;;;;;;;;28.40;99.90;;;;;;5028450;28;19925;-85
2023/08/21 09:04:23;;;;;;;;;;;28.40;98.90;;;;;;5014298;28;19925;-87
2023/08/21 09:06:49;;;;;;;;;;;28.40;99.90;;;;;;4998140;28;20623;-87
2023/08/21 09:09:14;;;;;;;;;;;28.40;98.70;;;;;;5012531;28;19926;-88
2023/08/21 09:11:44;;;;;;;;;;;28.50;98.50;;;;;;5066798;28;19979;-86
2023/08/21 09:14:10;;;;;;;;;;;28.60;99.00;;;;;;5047703;28;20380;-86
2023/08/21 09:16:35;;;;;;;;;;;28.60;98.80;;;;;;5034013;28;20001;-85
2023/08/21 09:19:01;;;;;;;;;;;28.60;96.40;;;;;;5033707;28;19929;-86
2023/08/21 09:21:27;;;;;;;;;;;28.60;97.80;;;;;;5028269;28;19932;-86
2023/08/21 09:23:58;;;;;;;;;;;28.30;93.70;;;;;;5033807;28;19929;-86
2023/08/21 09:26:23;;;;;;;;;;;27.80;96.90;;;;;;5050230;28;19925;-86
2023/08/21 09:28:50;;;;;;;;;;;27.90;98.10;;;;;;5051577;28;19940;-85
2023/08/21 09:31:16;;;;;;;;;;;28.00;98.70;;;;;;5036829;28;19941;-86
2023/08/21 09:33:42;;;;;;;;;;;28.20;96.20;;;;;;5024245;28;20295;-87
2023/08/21 09:36:09;;;;;;;;;;;28.40;99.10;;;;;;5024560;28;20494;-86
2023/08/21 09:38:35;;;;;;;;;;;28.60;99.10;;;;;;5070802;28;19929;-86
2023/08/21 09:41:01;;;;;;;;;;;28.70;94.70;;;;;;5005939;28;20360;-87
2023/08/21 09:43:26;;;;;;;;;;;28.80;96.00;;;;;;5051075;28;19936;-86
2023/08/21 09:45:55;;;;;;;;;;;28.80;95.20;;;;;;5054009;28;19936;-87
2023/08/21 09:48:27;;;;;;;;;;;28.90;91.50;;;;;;5050554;28;19925;-86
2023/08/21 09:50:52;;;;;;;;;;;29.10;96.00;;;;;;5034339;28;20403;-87
2023/08/21 09:53:20;;;;;;;;;;;29.20;93.10;;;;;;5034870;28;19925;-86
2023/08/21 09:55:46;;;;;;;;;;;29.20;94.00;;;;;;5036868;28;19983;-86
2023/08/21 09:58:13;;;;;;;;;;;29.20;93.50;;;;;;5003416;28;19932;-87
2023/08/21 10:00:39;;;;;;;;;;;29.30;94.30;;;;;;5050090;28;19936;-87
2023/08/21 10:03:07;;;;;;;;;;;29.40;95.20;;;;;;5032325;28;20011;-87
2023/08/21 10:05:33;;;;;;;;;;;29.50;90.70;;;;;;5069100;28;19926;-85
2023/08/21 10:08:01;;;;;;;;;;;29.50;92.30;;;;;;5018870;28;20356;-87
2023/08/21 10:10:28;;;;;;;;;;;29.50;91.80;;;;;;5049096;28;19925;-85
2023/08/21 10:12:53;;;;;;;;;;;29.40;90.70;;;;;;5049618;28;20001;-85
2023/08/21 10:15:19;;;;;;;;;;;29.20;82.00;;;;;;5042906;28;19925;-88
2023/08/21 10:17:45;;;;;;;;;;;29.30;90.30;;;;;;5034778;28;19930;-84
2023/08/21 10:20:10;;;;;;;;;;;29.30;83.80;;;;;;5032094;28;19975;-87
2023/08/21 10:22:42;;;;;;;;;;;29.10;84.60;;;;;;5018243;28;19944;-86
2023/08/21 10:25:15;;;;;;;;;;;28.90;90.60;;;;;;5020612;28;20699;-86
2023/08/21 10:27:42;;;;;;;;;;;28.80;88.60;;;;;;5061393;28;19957;-85
2023/08/21 10:30:15;;;;;;;;;;;28.80;89.40;;;;;;5030362;28;20036;-85
2023/08/21 10:32:47;;;;;;;;;;;28.70;84.60;;;;;;5035216;28;19935;-85
2023/08/21 10:35:20;;;;;;;;;;;28.70;84.90;;;;;;5018954;28;19929;-87
2023/08/21 10:38:04;;;;;;;;;;;28.50;88.10;;;;;;5019061;28;19933;-84
2023/08/21 10:40:30;;;;;;;;;;;28.40;88.50;;;;;;5041665;28;19988;-86
2023/08/21 10:42:56;;;;;;;;;;;28.20;83.50;;;;;;5032040;28;19940;-87
2023/08/21 10:45:21;;;;;;;;;;;28.00;87.60;;;;;;5044332;28;19929;-85
2023/08/21 10:47:49;;;;;;;;;;;28.00;82.00;;;;;;5020140;28;19932;-87
2023/08/21 10:50:14;;;;;;;;;;;28.10;90.60;;;;;;5031491;28;19925;-86
2023/08/21 10:52:47;;;;;;;;;;;28.10;90.60;;;;;;5025368;28;19953;-86
2023/08/21 10:55:14;;;;;;;;;;;28.20;88.10;;;;;;5033909;28;19931;-86
2023/08/21 10:57:41;;;;;;;;;;;28.10;86.70;;;;;;5017046;28;19930;-87
2023/08/21 11:00:13;;;;;;;;;;;28.00;84.60;;;;;;5043720;28;19925;-86
2023/08/21 11:02:40;;;;;;;;;;;28.10;87.00;;;;;;5037018;28;19925;-86
2023/08/21 11:05:07;;;;;;;;;;;28.20;87.60;;;;;;5018554;28;19929;-86
2023/08/21 11:07:37;;;;;;;;;;;28.30;85.90;;;;;;5039074;28;19933;-85
2023/08/21 11:10:03;;;;;;;;;;;28.20;80.50;;;;;;5023811;28;19927;-85
2023/08/21 11:12:29;;;;;;;;;;;28.10;86.70;;;;;;5025776;28;20277;-85
2023/08/21 11:14:54;;;;;;;;;;;28.10;85.80;;;;;;5054498;28;19931;-84
2023/08/21 11:17:20;;;;;;;;;;;28.00;85.20;;;;;;5024391;28;19929;-84
2023/08/21 11:19:48;;;;;;;;;;;28.00;83.70;;;;;;5041249;28;19929;-84
2023/08/21 11:22:13;;;;;;;;;;;28.10;86.00;;;;;;5022301;28;20015;-81
2023/08/21 11:24:40;;;;;;;;;;;28.10;86.00;;;;;;5001214;28;20005;-86
2023/08/21 11:27:06;;;;;;;;;;;28.20;88.30;;;;;;5048825;28;20395;-87
2023/08/21 11:29:36;;;;;;;;;;;28.40;85.10;;;;;;5017925;28;19956;-85
2023/08/21 11:32:02;;;;;;;;;;;28.40;84.80;;;;;;5020823;28;19933;-84
2023/08/21 11:34:28;;;;;;;;;;;28.50;84.20;;;;;;5047266;28;19925;-85
2023/08/21 11:36:54;;;;;;;;;;;28.60;89.30;;;;;;5028300;28;19925;-85
2023/08/21 11:39:20;;;;;;;;;;;28.60;86.70;;;;;;5051826;28;21582;-85
2023/08/21 11:41:56;;;;;;;;;;;28.60;81.60;;;;;;5020167;28;19933;-85
2023/08/21 11:44:21;;;;;;;;;;;28.60;82.80;;;;;;5045813;28;19940;-85
2023/08/21 11:46:47;;;;;;;;;;;28.80;86.50;;;;;;5047913;28;19957;-82
2023/08/21 11:49:13;;;;;;;;;;;28.90;84.90;;;;;;5014897;28;19925;-81
2023/08/21 11:51:39;;;;;;;;;;;28.90;83.50;;;;;;5033034;28;20428;-81
2023/08/21 11:54:05;;;;;;;;;;;28.90;81.90;;;;;;5032175;28;19936;-82
2023/08/21 11:56:31;;;;;;;;;;;29.00;82.40;;;;;;5013824;28;20593;-81
2023/08/21 11:58:59;;;;;;;;;;;29.00;82.40;;;;;;5047502;28;20208;-82
2023/08/21 12:01:24;;;;;;;;;;;29.10;84.00;;;;;;5014477;28;19925;-82
2023/08/21 12:03:56;;;;;;;;;;;29.10;82.30;;;;;;4998520;28;19932;-82
2023/08/21 12:06:22;;;;;;;;;;;28.90;81.20;;;;;;5015806;28;19954;-82
2023/08/21 12:08:48;;;;;;;;;;;28.90;77.60;;;;;;4999020;28;19936;-81
2023/08/21 12:11:13;;;;;;;;;;;28.80;82.50;;;;;;5015495;28;19925;-81
2023/08/21 12:13:39;;;;;;;;;;;28.70;81.20;;;;;;5012986;28;19936;-81
2023/08/21 12:16:05;;;;;;;;;;;28.60;79.10;;;;;;5014657;28;19966;-81
2023/08/21 12:18:30;;;;;;;;;;;28.60;83.30;;;;;;4998600;28;19931;-82
2023/08/21 12:20:56;;;;;;;;;;;28.60;80.80;;;;;;5029748;28;19929;-82
2023/08/21 12:23:22;;;;;;;;;;;28.70;80.60;;;;;;5012578;28;20364;-90
2023/08/21 12:25:47;;;;;;;;;;;28.80;79.30;;;;;;5042825;28;19933;-88
2023/08/21 12:28:13;;;;;;;;;;;28.90;82.20;;;;;;4998033;28;19930;-89
2023/08/21 12:30:38;;;;;;;;;;;29.00;78.00;;;;;;5031252;28;20368;-87
2023/08/21 12:33:04;;;;;;;;;;;29.10;79.90;;;;;;5014603;28;19929;-89
2023/08/21 12:35:30;;;;;;;;;;;29.20;81.10;;;;;;4998374;28;20977;-89
2023/08/21 12:37:56;;;;;;;;;;;29.40;80.30;;;;;;5031848;28;19936;-89
2023/08/21 12:40:22;;;;;;;;;;;29.40;78.40;;;;;;5029574;28;19925;-89
2023/08/21 12:42:47;;;;;;;;;;;29.50;81.00;;;;;;5014920;28;19936;-89
2023/08/21 12:45:13;;;;;;;;;;;29.60;79.50;;;;;;5043298;28;20012;-91
2023/08/21 12:47:39;;;;;;;;;;;29.70;76.30;;;;;;5017842;28;20614;-89
2023/08/21 12:50:07;;;;;;;;;;;29.80;78.10;;;;;;5035109;28;19936;-89
2023/08/21 12:52:32;;;;;;;;;;;29.90;77.60;;;;;;5019213;28;19925;-90
2023/08/21 12:54:59;;;;;;;;;;;29.90;75.80;;;;;;5002557;28;19975;-89
2023/08/21 12:57:26;;;;;;;;;;;29.70;76.00;;;;;;5003000;28;19929;-89
2023/08/21 12:59:51;;;;;;;;;;;29.60;75.80;;;;;;5018549;28;19929;-90
2023/08/21 13:02:18;;;;;;;;;;;29.50;75.80;;;;;;5019762;28;20055;-89
2023/08/21 13:04:44;;;;;;;;;;;29.30;75.40;;;;;;5019877;28;19926;-89
2023/08/21 13:07:09;;;;;;;;;;;29.00;76.50;;;;;;5021325;28;20540;-89
2023/08/21 13:09:35;;;;;;;;;;;28.70;75.20;;;;;;5034223;28;19951;-90
2023/08/21 13:12:01;;;;;;;;;;;28.70;76.30;;;;;;5020538;28;20327;-89
2023/08/21 13:14:27;;;;;;;;;;;28.60;78.20;;;;;;5034333;28;19929;-92
2023/08/21 13:16:52;;;;;;;;;;;28.80;81.70;;;;;;5019467;28;20112;-91
2023/08/21 13:19:18;;;;;;;;;;;28.70;78.60;;;;;;5017614;28;19937;-91
2023/08/21 13:21:44;;;;;;;;;;;28.80;79.80;;;;;;5018238;28;19995;-91
2023/08/21 13:24:10;;;;;;;;;;;28.80;76.50;;;;;;5035472;28;19960;-91
2023/08/21 13:26:36;;;;;;;;;;;28.80;76.60;;;;;;5016949;28;19929;-88
2023/08/21 13:29:01;;;;;;;;;;;28.70;74.80;;;;;;5021705;28;19963;-90
2023/08/21 13:31:28;;;;;;;;;;;28.70;75.30;;;;;;5010470;28;19933;-90
2023/08/21 13:33:54;;;;;;;;;;;28.70;77.80;;;;;;5046020;28;19925;-91
2023/08/21 13:36:20;;;;;;;;;;;28.80;79.20;;;;;;5035860;28;19983;-90
2023/08/21 13:38:46;;;;;;;;;;;28.90;76.20;;;;;;5002939;28;19933;-90
2023/08/21 13:41:12;;;;;;;;;;;28.90;75.70;;;;;;5048752;28;19936;-91
2023/08/21 13:43:38;;;;;;;;;;;28.90;75.00;;;;;;5053130;28;19999;-92
2023/08/21 13:46:04;;;;;;;;;;;28.90;76.60;;;;;;5019596;28;19960;-90
2023/08/21 13:48:32;;;;;;;;;;;28.80;76.90;;;;;;5019689;28;19934;-89
2023/08/21 13:50:58;;;;;;;;;;;28.80;73.40;;;;;;5036395;28;19976;-89
2023/08/21 13:53:24;;;;;;;;;;;28.80;72.60;;;;;;5005231;28;19929;-91
2023/08/21 13:55:50;;;;;;;;;;;28.90;74.20;;;;;;5012556;28;19930;-90
2023/08/21 13:58:15;;;;;;;;;;;28.80;68.90;;;;;;5036242;28;19943;-89
2023/08/21 14:00:41;;;;;;;;;;;28.70;72.20;;;;;;5017513;28;20392;-90
2023/08/21 14:03:06;;;;;;;;;;;28.40;72.10;;;;;;5057298;28;20376;-92
2023/08/21 14:05:33;;;;;;;;;;;28.00;76.40;;;;;;5023850;28;19967;-91
2023/08/21 14:07:59;;;;;;;;;;;27.60;75.40;;;;;;5031794;28;19925;-91
2023/08/21 14:10:25;;;;;;;;;;;27.30;77.90;;;;;;5037552;28;19968;-90